createdAt,value
2019-03-29T00:00:29.191Z,19.88
2019-03-29T00:01:29.186Z,19.93
2019-03-29T00:02:29.122Z,19.87
2019-03-29T00:03:29.120Z,19.87
2019-03-29T00:04:29.083Z,19.87
2019-03-29T00:05:29.068Z,19.84
2019-03-29T00:06:29.079Z,19.88
2019-03-29T00:07:39.412Z,19.78
2019-03-29T00:08:30.167Z,19.86
2019-03-29T00:09:29.083Z,19.88
2019-03-29T00:10:29.033Z,19.80
2019-03-29T00:11:29.039Z,19.87
2019-03-29T00:12:29.019Z,19.90
2019-03-29T00:13:29.008Z,19.86
2019-03-29T00:14:29.002Z,19.91
2019-03-29T00:15:29.852Z,19.88
2019-03-29T00:16:29.020Z,19.80
2019-03-29T00:17:28.970Z,19.84
2019-03-29T00:18:28.845Z,19.80
2019-03-29T00:19:28.944Z,19.95
2019-03-29T00:20:28.929Z,19.79
2019-03-29T00:21:28.922Z,19.86
2019-03-29T00:22:29.021Z,19.86
2019-03-29T00:23:28.891Z,19.88
2019-03-29T00:24:28.879Z,19.78
2019-03-29T00:25:28.870Z,19.80
2019-03-29T00:26:28.873Z,19.86
2019-03-29T00:27:29.412Z,19.83
2019-03-29T00:28:28.898Z,19.84
2019-03-29T00:29:29.978Z,19.84
2019-03-29T00:30:28.828Z,19.95
2019-03-29T00:31:28.806Z,19.86
2019-03-29T00:32:28.801Z,19.79
2019-03-29T00:33:28.832Z,19.80
2019-03-29T00:34:28.776Z,19.87
2019-03-29T00:35:28.761Z,19.79
2019-03-29T00:36:28.735Z,19.88
2019-03-29T00:37:28.732Z,19.88
2019-03-29T00:38:28.751Z,19.90
2019-03-29T00:39:28.863Z,19.84
2019-03-29T00:40:28.708Z,19.86
2019-03-29T00:41:28.693Z,19.93
2019-03-29T00:42:28.677Z,19.84
2019-03-29T00:43:28.657Z,19.84
2019-03-29T00:44:28.667Z,19.83
2019-03-29T00:45:28.693Z,19.83
2019-03-29T00:46:28.664Z,19.83
2019-03-29T00:47:29.378Z,19.83
2019-03-29T00:48:28.585Z,19.87
2019-03-29T00:49:28.616Z,19.80
2019-03-29T00:50:28.598Z,19.83
2019-03-29T00:51:28.617Z,19.87
2019-03-29T00:52:28.552Z,19.93
2019-03-29T00:53:28.541Z,19.83
2019-03-29T00:54:28.527Z,19.84
2019-03-29T00:55:28.524Z,19.87
2019-03-29T00:56:28.548Z,19.87
2019-03-29T00:57:28.508Z,19.73
2019-03-29T00:58:28.519Z,19.84
2019-03-29T00:59:28.485Z,19.80
2019-03-29T01:00:31.258Z,19.73
2019-03-29T01:01:28.463Z,19.78
2019-03-29T01:02:28.486Z,19.79
2019-03-29T01:03:28.436Z,19.78
2019-03-29T01:04:29.093Z,19.80
2019-03-29T01:05:28.427Z,19.83
2019-03-29T01:06:28.415Z,19.75
2019-03-29T01:07:28.401Z,19.86
2019-03-29T01:08:28.446Z,19.70
2019-03-29T01:09:28.376Z,19.80
2019-03-29T01:10:28.355Z,19.70
2019-03-29T01:11:28.358Z,19.75
2019-03-29T01:12:28.347Z,19.79
2019-03-29T01:13:28.320Z,19.75
2019-03-29T01:14:28.364Z,19.68
2019-03-29T01:15:28.309Z,19.76
2019-03-29T01:16:28.326Z,19.73
2019-03-29T01:17:28.272Z,19.72
2019-03-29T01:18:28.261Z,19.76
2019-03-29T01:19:28.258Z,19.69
2019-03-29T01:20:28.280Z,19.73
2019-03-29T01:21:28.233Z,19.76
2019-03-29T01:22:28.241Z,19.70
2019-03-29T01:23:28.196Z,19.75
2019-03-29T01:24:28.203Z,19.73
2019-03-29T01:25:28.193Z,19.75
2019-03-29T01:26:28.250Z,19.68
2019-03-29T01:27:28.198Z,19.69
2019-03-29T01:28:28.171Z,19.70
2019-03-29T01:29:28.162Z,19.70
2019-03-29T01:30:28.155Z,19.69
2019-03-29T01:31:28.143Z,19.76
2019-03-29T01:32:28.183Z,19.70
2019-03-29T01:33:28.151Z,19.69
2019-03-29T01:34:28.106Z,19.72
2019-03-29T01:35:28.086Z,19.73
2019-03-29T01:36:28.284Z,19.69
2019-03-29T01:37:28.004Z,19.68
2019-03-29T01:38:28.076Z,19.68
2019-03-29T01:39:28.101Z,19.69
2019-03-29T01:40:28.032Z,19.70
2019-03-29T01:41:28.025Z,19.72
2019-03-29T01:42:28.005Z,19.72
2019-03-29T01:43:28.013Z,19.68
2019-03-29T01:44:28.240Z,19.75
2019-03-29T01:45:28.130Z,19.72
2019-03-29T01:46:27.878Z,19.72
2019-03-29T01:47:27.966Z,19.69
2019-03-29T01:48:27.954Z,19.69
2019-03-29T01:49:27.944Z,19.68
2019-03-29T01:50:27.926Z,19.63
2019-03-29T01:51:28.153Z,19.66
2019-03-29T01:52:31.327Z,19.70
2019-03-29T01:53:27.897Z,19.68
2019-03-29T01:54:27.892Z,19.65
2019-03-29T01:55:27.890Z,19.75
2019-03-29T01:56:27.919Z,19.68
2019-03-29T01:57:27.908Z,19.65
2019-03-29T01:58:27.874Z,19.68
2019-03-29T01:59:27.835Z,19.65
2019-03-29T02:00:27.820Z,19.68
2019-03-29T02:01:28.412Z,19.68
2019-03-29T02:02:27.808Z,19.70
2019-03-29T02:03:27.843Z,19.70
2019-03-29T02:04:27.772Z,19.79
2019-03-29T02:05:27.980Z,19.69
2019-03-29T02:06:27.759Z,19.70
2019-03-29T02:07:27.745Z,19.68
2019-03-29T02:08:35.710Z,19.61
2019-03-29T02:09:28.750Z,19.61
2019-03-29T02:10:27.687Z,19.68
2019-03-29T02:11:27.682Z,19.68
2019-03-29T02:12:27.674Z,19.68
2019-03-29T02:13:27.668Z,19.63
2019-03-29T02:14:27.641Z,19.68
2019-03-29T02:15:27.689Z,19.63
2019-03-29T02:16:27.645Z,19.69
2019-03-29T02:17:27.637Z,19.55
2019-03-29T02:18:27.609Z,19.65
2019-03-29T02:19:27.592Z,19.63
2019-03-29T02:20:27.587Z,19.65
2019-03-29T02:21:27.606Z,19.55
2019-03-29T02:22:27.570Z,19.57
2019-03-29T02:23:27.560Z,19.63
2019-03-29T02:24:27.538Z,19.57
2019-03-29T02:25:27.546Z,19.57
2019-03-29T02:26:27.518Z,19.54
2019-03-29T02:27:27.560Z,19.57
2019-03-29T02:28:27.489Z,19.60
2019-03-29T02:29:27.483Z,19.60
2019-03-29T02:30:27.492Z,19.60
2019-03-29T02:31:28.799Z,19.61
2019-03-29T02:32:27.460Z,19.61
2019-03-29T02:33:27.475Z,19.57
2019-03-29T02:34:27.431Z,19.63
2019-03-29T02:35:27.445Z,19.57
2019-03-29T02:36:27.406Z,19.60
2019-03-29T02:37:28.643Z,19.63
2019-03-29T02:38:27.399Z,19.58
2019-03-29T02:39:27.462Z,19.61
2019-03-29T02:40:27.366Z,19.60
2019-03-29T02:41:27.355Z,19.60
2019-03-29T02:42:27.341Z,19.63
2019-03-29T02:43:27.382Z,19.57
2019-03-29T02:44:27.316Z,19.55
2019-03-29T02:45:27.348Z,19.60
2019-03-29T02:46:27.300Z,19.57
2019-03-29T02:47:27.288Z,19.53
2019-03-29T02:48:27.273Z,19.58
2019-03-29T02:49:27.273Z,19.53
2019-03-29T02:50:27.255Z,19.57
2019-03-29T02:51:27.269Z,19.58
2019-03-29T02:52:27.292Z,19.51
2019-03-29T02:53:27.214Z,19.53
2019-03-29T02:54:27.209Z,19.50
2019-03-29T02:55:27.221Z,19.57
2019-03-29T02:56:27.188Z,19.58
2019-03-29T02:57:27.190Z,19.57
2019-03-29T02:58:27.200Z,19.55
2019-03-29T02:59:27.155Z,19.47
2019-03-29T03:00:27.153Z,19.51
2019-03-29T03:01:27.175Z,19.48
2019-03-29T03:02:27.136Z,19.48
2019-03-29T03:03:27.106Z,19.54
2019-03-29T03:04:27.142Z,19.50
2019-03-29T03:05:27.100Z,19.51
2019-03-29T03:06:27.184Z,19.50
2019-03-29T03:07:27.082Z,19.47
2019-03-29T03:08:27.061Z,19.53
2019-03-29T03:09:27.041Z,19.47
2019-03-29T03:10:27.073Z,19.58
2019-03-29T03:11:27.037Z,19.51
2019-03-29T03:12:27.035Z,19.53
2019-03-29T03:13:27.005Z,19.48
2019-03-29T03:14:26.998Z,19.55
2019-03-29T03:15:26.979Z,19.48
2019-03-29T03:16:27.011Z,19.47
2019-03-29T03:17:26.955Z,19.50
2019-03-29T03:18:26.957Z,19.43
2019-03-29T03:19:26.933Z,19.53
2019-03-29T03:20:26.922Z,19.47
2019-03-29T03:21:26.914Z,19.47
2019-03-29T03:22:26.929Z,19.51
2019-03-29T03:23:26.882Z,19.47
2019-03-29T03:24:26.938Z,19.53
2019-03-29T03:25:26.880Z,19.47
2019-03-29T03:26:26.841Z,19.46
2019-03-29T03:27:26.849Z,19.42
2019-03-29T03:28:26.843Z,19.50
2019-03-29T03:29:26.825Z,19.46
2019-03-29T03:30:26.911Z,19.43
2019-03-29T03:31:26.789Z,19.46
2019-03-29T03:32:26.777Z,19.40
2019-03-29T03:33:26.990Z,19.46
2019-03-29T03:34:26.772Z,19.39
2019-03-29T03:35:26.755Z,19.40
2019-03-29T03:36:26.781Z,19.40
2019-03-29T03:37:26.724Z,19.39
2019-03-29T03:38:26.727Z,19.39
2019-03-29T03:39:31.901Z,19.42
2019-03-29T03:40:27.704Z,19.47
2019-03-29T03:41:26.691Z,19.35
2019-03-29T03:42:26.999Z,19.48
2019-03-29T03:43:26.652Z,19.48
2019-03-29T03:44:26.664Z,19.50
2019-03-29T03:45:26.635Z,19.38
2019-03-29T03:46:26.671Z,19.39
2019-03-29T03:47:26.626Z,19.40
2019-03-29T03:48:26.640Z,19.39
2019-03-29T03:49:26.591Z,19.38
2019-03-29T03:50:26.594Z,19.46
2019-03-29T03:51:26.634Z,19.46
2019-03-29T03:52:26.555Z,19.40
2019-03-29T03:53:26.565Z,19.38
2019-03-29T03:54:26.573Z,19.39
2019-03-29T03:55:26.549Z,19.39
2019-03-29T03:56:26.545Z,19.36
2019-03-29T03:57:26.545Z,19.40
2019-03-29T03:58:26.498Z,19.39
2019-03-29T03:59:26.491Z,19.40
2019-03-29T04:00:26.518Z,19.46
2019-03-29T04:01:26.470Z,19.39
2019-03-29T04:02:26.454Z,19.39
2019-03-29T04:03:26.406Z,19.39
2019-03-29T04:04:26.447Z,19.39
2019-03-29T04:05:26.423Z,19.39
2019-03-29T04:06:26.410Z,19.39
2019-03-29T04:07:26.396Z,19.42
2019-03-29T04:08:26.416Z,19.38
2019-03-29T04:09:26.441Z,19.43
2019-03-29T04:10:26.369Z,19.31
2019-03-29T04:11:26.355Z,19.43
2019-03-29T04:12:26.368Z,19.38
2019-03-29T04:13:26.357Z,19.35
2019-03-29T04:14:26.321Z,19.38
2019-03-29T04:15:26.354Z,19.35
2019-03-29T04:16:26.352Z,19.35
2019-03-29T04:17:26.283Z,19.39
2019-03-29T04:18:26.267Z,19.32
2019-03-29T04:19:26.272Z,19.33
2019-03-29T04:20:26.257Z,19.42
2019-03-29T04:21:26.246Z,19.33
2019-03-29T04:22:26.277Z,19.31
2019-03-29T04:23:26.231Z,19.33
2019-03-29T04:24:26.213Z,19.35
2019-03-29T04:25:26.299Z,19.33
2019-03-29T04:26:26.194Z,19.32
2019-03-29T04:27:26.174Z,19.35
2019-03-29T04:28:26.215Z,19.35
2019-03-29T04:29:26.166Z,19.36
2019-03-29T04:30:26.147Z,19.32
2019-03-29T04:31:26.136Z,19.33
2019-03-29T04:32:26.131Z,19.32
2019-03-29T04:33:27.033Z,19.33
2019-03-29T04:34:26.144Z,19.29
2019-03-29T04:35:26.102Z,19.31
2019-03-29T04:36:26.096Z,19.36
2019-03-29T04:37:26.101Z,19.24
2019-03-29T04:38:26.107Z,19.32
2019-03-29T04:39:26.069Z,19.33
2019-03-29T04:40:26.474Z,19.24
2019-03-29T04:41:26.029Z,19.31
2019-03-29T04:42:26.016Z,19.33
2019-03-29T04:43:26.014Z,19.32
2019-03-29T04:44:25.987Z,19.28
2019-03-29T04:45:25.975Z,19.20
2019-03-29T04:46:26.015Z,19.23
2019-03-29T04:47:25.955Z,19.32
2019-03-29T04:48:25.984Z,19.23
2019-03-29T04:49:25.931Z,19.29
2019-03-29T04:50:25.932Z,19.23
2019-03-29T04:51:25.917Z,19.23
2019-03-29T04:52:25.910Z,19.23
2019-03-29T04:53:25.924Z,19.32
2019-03-29T04:54:25.919Z,19.24
2019-03-29T04:55:25.868Z,19.21
2019-03-29T04:56:25.855Z,19.23
2019-03-29T04:57:25.840Z,19.24
2019-03-29T04:58:25.839Z,19.23
2019-03-29T04:59:25.823Z,19.23
2019-03-29T05:00:25.835Z,19.20
2019-03-29T05:01:25.814Z,19.21
2019-03-29T05:02:25.803Z,19.23
2019-03-29T05:03:25.817Z,19.23
2019-03-29T05:04:25.784Z,19.23
2019-03-29T05:05:25.846Z,19.23
2019-03-29T05:06:25.764Z,19.18
2019-03-29T05:07:25.747Z,19.21
2019-03-29T05:08:25.754Z,19.23
2019-03-29T05:09:25.711Z,19.28
2019-03-29T05:10:25.702Z,19.23
2019-03-29T05:11:25.730Z,19.23
2019-03-29T05:12:25.596Z,19.24
2019-03-29T05:13:25.596Z,19.25
2019-03-29T05:14:25.696Z,19.18
2019-03-29T05:15:25.570Z,19.23
2019-03-29T05:16:25.598Z,19.20
2019-03-29T05:17:25.597Z,19.24
2019-03-29T05:18:25.530Z,19.23
2019-03-29T05:19:25.506Z,19.25
2019-03-29T05:20:25.628Z,19.25
2019-03-29T05:21:25.505Z,19.25
2019-03-29T05:22:25.514Z,19.28
2019-03-29T05:23:25.613Z,19.18
2019-03-29T05:24:25.466Z,19.21
2019-03-29T05:25:25.570Z,19.25
2019-03-29T05:26:25.713Z,19.21
2019-03-29T05:27:25.539Z,19.21
2019-03-29T05:28:25.512Z,19.25
2019-03-29T05:29:26.541Z,19.25
2019-03-29T05:30:25.398Z,19.25
2019-03-29T05:31:25.378Z,19.20
2019-03-29T05:32:25.468Z,19.24
2019-03-29T05:33:25.440Z,19.28
2019-03-29T05:34:25.442Z,19.18
2019-03-29T05:35:25.370Z,19.21
2019-03-29T05:36:25.424Z,19.25
2019-03-29T05:37:25.473Z,19.20
2019-03-29T05:38:25.393Z,19.23
2019-03-29T05:39:25.308Z,19.23
2019-03-29T05:40:34.764Z,19.25
2019-03-29T05:41:26.375Z,19.24
2019-03-29T05:42:25.358Z,19.28
2019-03-29T05:43:25.338Z,19.24
2019-03-29T05:44:25.401Z,19.15
2019-03-29T05:45:25.326Z,19.24
2019-03-29T05:46:25.363Z,19.25
2019-03-29T05:47:25.319Z,19.23
2019-03-29T05:48:25.279Z,19.29
2019-03-29T05:49:25.282Z,19.15
2019-03-29T05:50:25.278Z,19.18
2019-03-29T05:51:25.255Z,19.25
2019-03-29T05:52:25.270Z,19.24
2019-03-29T05:53:25.243Z,19.24
2019-03-29T05:54:25.237Z,19.24
2019-03-29T05:55:32.662Z,19.24
2019-03-29T05:56:26.199Z,19.23
2019-03-29T05:57:25.208Z,19.15
2019-03-29T05:58:25.218Z,19.25
2019-03-29T05:59:25.283Z,19.21
2019-03-29T06:00:25.147Z,19.25
2019-03-29T06:01:25.158Z,19.28
2019-03-29T06:02:25.146Z,19.25
2019-03-29T06:03:25.157Z,19.24
2019-03-29T06:04:25.272Z,19.25
2019-03-29T06:05:25.101Z,19.23
2019-03-29T06:06:25.085Z,19.28
2019-03-29T06:07:25.087Z,19.21
2019-03-29T06:08:25.079Z,19.24
2019-03-29T06:09:25.065Z,19.24
2019-03-29T06:10:25.097Z,19.29
2019-03-29T06:11:25.046Z,19.20
2019-03-29T06:12:25.107Z,19.25
2019-03-29T06:13:25.017Z,19.21
2019-03-29T06:14:24.984Z,19.28
2019-03-29T06:15:24.979Z,19.24
2019-03-29T06:16:38.091Z,19.24
2019-03-29T06:17:25.898Z,19.20
2019-03-29T06:18:25.124Z,19.28
2019-03-29T06:19:25.359Z,19.24
2019-03-29T06:20:24.824Z,19.32
2019-03-29T06:21:24.817Z,19.28
2019-03-29T06:22:25.037Z,19.28
2019-03-29T06:23:24.808Z,19.36
2019-03-29T06:24:24.783Z,19.23
2019-03-29T06:25:24.775Z,19.35
2019-03-29T06:26:24.790Z,19.20
2019-03-29T06:27:24.770Z,19.38
2019-03-29T06:28:24.796Z,19.31
2019-03-29T06:29:24.773Z,19.32
2019-03-29T06:30:24.754Z,19.33
2019-03-29T06:31:24.926Z,19.36
2019-03-29T06:32:24.720Z,19.31
2019-03-29T06:33:24.803Z,19.33
2019-03-29T06:34:24.754Z,19.32
2019-03-29T06:35:24.683Z,19.33
2019-03-29T06:36:24.743Z,19.35
2019-03-29T06:37:24.675Z,19.32
2019-03-29T06:38:25.471Z,19.33
2019-03-29T06:39:24.667Z,19.38
2019-03-29T06:40:25.035Z,19.42
2019-03-29T06:41:24.695Z,19.42
2019-03-29T06:42:24.810Z,19.40
2019-03-29T06:43:24.607Z,19.40
2019-03-29T06:44:24.575Z,19.33
2019-03-29T06:45:24.554Z,19.36
2019-03-29T06:46:24.705Z,19.47
2019-03-29T06:47:24.566Z,19.42
2019-03-29T06:48:24.544Z,19.40
2019-03-29T06:49:24.505Z,19.48
2019-03-29T06:50:24.575Z,19.50
2019-03-29T06:51:24.654Z,19.46
2019-03-29T06:52:24.490Z,19.57
2019-03-29T06:53:24.587Z,19.60
2019-03-29T06:54:24.475Z,19.51
2019-03-29T06:55:24.448Z,19.51
2019-03-29T06:56:24.498Z,19.57
2019-03-29T06:57:24.730Z,19.61
2019-03-29T06:58:24.501Z,19.57
2019-03-29T06:59:24.528Z,19.58
2019-03-29T07:00:24.424Z,19.66
2019-03-29T07:01:24.480Z,19.66
2019-03-29T07:02:25.451Z,19.66
2019-03-29T07:03:24.638Z,19.72
2019-03-29T07:04:24.462Z,19.70
2019-03-29T07:05:24.441Z,19.73
2019-03-29T07:06:24.436Z,19.75
2019-03-29T07:07:24.411Z,19.70
2019-03-29T07:08:24.402Z,19.68
2019-03-29T07:09:24.444Z,19.72
2019-03-29T07:10:24.428Z,19.76
2019-03-29T07:11:24.278Z,19.69
2019-03-29T07:12:24.315Z,19.80
2019-03-29T07:13:24.359Z,19.75
2019-03-29T07:14:24.353Z,19.86
2019-03-29T07:15:24.272Z,19.83
2019-03-29T07:16:24.220Z,19.86
2019-03-29T07:17:24.209Z,19.93
2019-03-29T07:18:24.207Z,19.87
2019-03-29T07:19:24.230Z,19.88
2019-03-29T07:20:24.278Z,19.87
2019-03-29T07:21:24.210Z,19.97
2019-03-29T07:22:24.161Z,20.03
2019-03-29T07:23:24.143Z,20.00
2019-03-29T07:24:24.133Z,20.00
2019-03-29T07:25:24.120Z,20.03
2019-03-29T07:26:24.104Z,20.02
2019-03-29T07:27:24.147Z,20.05
2019-03-29T07:28:24.098Z,20.02
2019-03-29T07:29:24.079Z,20.09
2019-03-29T07:30:24.067Z,20.12
2019-03-29T07:31:24.057Z,20.15
2019-03-29T07:32:24.046Z,20.10
2019-03-29T07:33:24.062Z,20.13
2019-03-29T07:34:24.135Z,20.21
2019-03-29T07:35:24.011Z,20.18
2019-03-29T07:36:24.013Z,20.21
2019-03-29T07:37:23.973Z,20.16
2019-03-29T07:38:23.992Z,20.24
2019-03-29T07:39:25.337Z,20.23
2019-03-29T07:40:24.044Z,20.16
2019-03-29T07:41:31.687Z,20.24
2019-03-29T07:42:24.948Z,20.24
2019-03-29T07:43:24.224Z,20.24
2019-03-29T07:44:24.004Z,20.33
2019-03-29T07:45:24.043Z,20.30
2019-03-29T07:46:23.890Z,20.30
2019-03-29T07:47:23.875Z,20.27
2019-03-29T07:48:23.862Z,20.34
2019-03-29T07:49:24.019Z,20.28
2019-03-29T07:50:23.855Z,20.33
2019-03-29T07:51:23.979Z,20.41
2019-03-29T07:52:23.809Z,20.35
2019-03-29T07:53:23.904Z,20.38
2019-03-29T07:54:23.906Z,20.39
2019-03-29T07:55:23.901Z,20.41
2019-03-29T07:56:23.786Z,20.49
2019-03-29T07:57:23.887Z,20.47
2019-03-29T07:58:23.857Z,20.46
2019-03-29T07:59:23.845Z,20.49
2019-03-29T08:00:23.845Z,20.53
2019-03-29T08:01:23.821Z,20.49
2019-03-29T08:02:23.830Z,20.61
2019-03-29T08:03:23.917Z,20.65
2019-03-29T08:04:24.222Z,20.56
2019-03-29T08:05:23.787Z,20.51
2019-03-29T08:06:23.767Z,20.61
2019-03-29T08:07:27.556Z,20.61
2019-03-29T08:08:27.919Z,20.66
2019-03-29T08:09:24.777Z,20.68
2019-03-29T08:10:27.381Z,20.65
2019-03-29T08:11:26.272Z,20.76
2019-03-29T08:12:23.732Z,20.74
2019-03-29T08:13:23.589Z,20.74
2019-03-29T08:14:23.611Z,20.76
2019-03-29T08:15:23.619Z,20.89
2019-03-29T08:16:23.575Z,20.80
2019-03-29T08:17:23.542Z,20.84
2019-03-29T08:18:23.542Z,20.87
2019-03-29T08:19:23.522Z,20.86
2019-03-29T08:20:43.559Z,20.87
2019-03-29T08:21:24.551Z,20.84
2019-03-29T08:22:23.489Z,20.89
2019-03-29T08:23:23.485Z,20.98
2019-03-29T08:24:23.460Z,21.01
2019-03-29T08:25:23.476Z,21.02
2019-03-29T08:26:23.473Z,21.04
2019-03-29T08:27:23.451Z,21.04
2019-03-29T08:28:23.488Z,21.02
2019-03-29T08:29:23.458Z,21.04
2019-03-29T08:30:23.417Z,21.08
2019-03-29T08:31:23.480Z,21.08
2019-03-29T08:32:23.390Z,21.02
2019-03-29T08:33:23.365Z,21.09
2019-03-29T08:34:23.478Z,21.13
2019-03-29T08:35:23.390Z,21.06
2019-03-29T08:36:23.349Z,21.05
2019-03-29T08:37:23.427Z,20.99
2019-03-29T08:38:23.312Z,20.86
2019-03-29T08:39:28.301Z,20.72
2019-03-29T08:40:24.443Z,20.66
2019-03-29T08:41:23.290Z,20.61
2019-03-29T08:42:23.415Z,20.49
2019-03-29T08:43:23.273Z,20.39
2019-03-29T08:44:23.245Z,20.23
2019-03-29T08:45:23.243Z,20.21
2019-03-29T08:46:23.312Z,20.10
2019-03-29T08:47:23.218Z,19.98
2019-03-29T08:48:23.273Z,19.98
2019-03-29T08:49:23.195Z,20.02
2019-03-29T08:50:23.181Z,19.97
2019-03-29T08:51:23.181Z,19.91
2019-03-29T08:52:23.165Z,19.94
2019-03-29T08:53:23.625Z,19.91
2019-03-29T08:54:23.195Z,19.87
2019-03-29T08:55:23.982Z,19.78
2019-03-29T08:56:23.113Z,19.87
2019-03-29T08:57:23.148Z,19.80
2019-03-29T08:58:23.101Z,19.76
2019-03-29T08:59:23.093Z,19.83
2019-03-29T09:00:23.088Z,19.69
2019-03-29T09:01:23.055Z,19.73
2019-03-29T09:02:25.050Z,19.72
2019-03-29T09:03:23.100Z,19.79
2019-03-29T09:04:23.041Z,19.83
2019-03-29T09:05:23.019Z,19.88
2019-03-29T09:06:23.152Z,19.95
2019-03-29T09:07:22.980Z,20.05
2019-03-29T09:08:22.970Z,20.05
2019-03-29T09:09:23.034Z,20.00
2019-03-29T09:10:22.955Z,20.09
2019-03-29T09:11:22.970Z,20.15
2019-03-29T09:12:22.943Z,20.20
2019-03-29T09:13:22.943Z,20.30
2019-03-29T09:14:22.922Z,20.41
2019-03-29T09:15:23.007Z,20.34
2019-03-29T09:16:22.901Z,20.46
2019-03-29T09:17:22.883Z,20.49
2019-03-29T09:18:25.747Z,20.51
2019-03-29T09:19:22.873Z,20.51
2019-03-29T09:20:22.868Z,20.68
2019-03-29T09:21:22.901Z,20.66
2019-03-29T09:22:22.836Z,20.66
2019-03-29T09:23:22.832Z,20.76
2019-03-29T09:24:22.844Z,20.72
2019-03-29T09:25:22.806Z,20.76
2019-03-29T09:26:22.805Z,20.76
2019-03-29T09:27:22.833Z,20.79
2019-03-29T09:28:22.775Z,20.84
2019-03-29T09:29:22.749Z,20.83
2019-03-29T09:30:22.754Z,20.91
2019-03-29T09:31:22.743Z,20.89
2019-03-29T09:32:22.723Z,20.91
2019-03-29T09:33:22.869Z,20.98
2019-03-29T09:34:22.685Z,20.99
2019-03-29T09:35:22.704Z,21.01
2019-03-29T09:36:22.679Z,21.04
2019-03-29T09:37:22.678Z,21.05
2019-03-29T09:38:22.645Z,21.02
2019-03-29T09:39:22.681Z,21.04
2019-03-29T09:40:22.649Z,20.95
2019-03-29T09:41:22.621Z,20.86
2019-03-29T09:42:28.835Z,20.66
2019-03-29T09:43:26.365Z,20.65
2019-03-29T09:44:22.640Z,20.49
2019-03-29T09:45:22.570Z,20.39
2019-03-29T09:46:22.571Z,20.24
2019-03-29T09:47:22.557Z,20.18
2019-03-29T09:48:22.551Z,20.16
2019-03-29T09:49:22.593Z,20.15
2019-03-29T09:50:23.166Z,20.21
2019-03-29T09:51:22.524Z,20.31
2019-03-29T09:52:22.499Z,20.30
2019-03-29T09:53:22.503Z,20.33
2019-03-29T09:54:22.489Z,20.35
2019-03-29T09:55:22.484Z,20.42
2019-03-29T09:56:22.512Z,20.50
2019-03-29T09:57:36.132Z,20.47
2019-03-29T09:58:23.437Z,20.50
2019-03-29T09:59:23.188Z,20.56
2019-03-29T10:00:23.464Z,20.49
2019-03-29T10:01:22.425Z,20.62
2019-03-29T10:02:22.419Z,20.71
2019-03-29T10:03:22.382Z,20.64
2019-03-29T10:04:22.403Z,20.72
2019-03-29T10:05:22.358Z,20.65
2019-03-29T10:06:22.333Z,20.61
2019-03-29T10:07:22.354Z,20.49
2019-03-29T10:08:22.327Z,20.49
2019-03-29T10:09:22.458Z,20.49
2019-03-29T10:10:22.350Z,20.54
2019-03-29T10:11:22.366Z,20.58
2019-03-29T10:12:22.291Z,20.61
2019-03-29T10:13:22.273Z,20.64
2019-03-29T10:14:22.257Z,20.69
2019-03-29T10:15:22.269Z,20.74
2019-03-29T10:16:25.588Z,20.89
2019-03-29T10:17:22.733Z,20.86
2019-03-29T10:18:22.328Z,21.04
2019-03-29T10:19:22.201Z,21.08
2019-03-29T10:20:22.499Z,21.20
2019-03-29T10:21:22.582Z,21.20
2019-03-29T10:22:22.164Z,21.21
2019-03-29T10:23:22.223Z,21.30
2019-03-29T10:24:22.139Z,21.32
2019-03-29T10:25:22.139Z,21.38
2019-03-29T10:26:22.145Z,21.45
2019-03-29T10:27:22.291Z,21.42
2019-03-29T10:28:22.125Z,21.53
2019-03-29T10:29:22.131Z,21.60
2019-03-29T10:30:22.088Z,21.71
2019-03-29T10:31:32.058Z,21.75
2019-03-29T10:32:23.065Z,21.79
2019-03-29T10:33:22.061Z,21.90
2019-03-29T10:34:22.025Z,21.95
2019-03-29T10:35:22.051Z,22.06
2019-03-29T10:36:22.053Z,22.17
2019-03-29T10:37:22.012Z,22.27
2019-03-29T10:38:22.002Z,22.32
2019-03-29T10:39:22.031Z,22.41
2019-03-29T10:40:21.997Z,22.38
2019-03-29T10:41:22.651Z,22.41
2019-03-29T10:42:22.006Z,22.28
2019-03-29T10:43:21.941Z,22.43
2019-03-29T10:44:21.923Z,22.35
2019-03-29T10:45:21.920Z,22.41
2019-03-29T10:46:21.909Z,22.39
2019-03-29T10:47:21.888Z,22.34
2019-03-29T10:48:21.916Z,22.39
2019-03-29T10:49:21.990Z,22.39
2019-03-29T10:50:21.965Z,22.37
2019-03-29T10:51:21.893Z,22.37
2019-03-29T10:52:21.851Z,22.28
2019-03-29T10:53:21.828Z,22.23
2019-03-29T10:54:21.823Z,22.25
2019-03-29T10:55:21.914Z,22.25
2019-03-29T10:56:33.435Z,22.28
2019-03-29T10:57:22.926Z,22.19
2019-03-29T10:58:21.785Z,22.22
2019-03-29T10:59:27.676Z,22.19
2019-03-29T11:00:22.740Z,22.12
2019-03-29T11:01:24.637Z,22.10
2019-03-29T11:02:21.819Z,22.19
2019-03-29T11:03:21.747Z,22.17
2019-03-29T11:04:21.806Z,22.12
2019-03-29T11:05:21.801Z,22.14
2019-03-29T11:06:21.786Z,22.07
2019-03-29T11:07:21.782Z,22.04
2019-03-29T11:08:21.744Z,22.13
2019-03-29T11:09:21.775Z,22.04
2019-03-29T11:10:21.652Z,22.14
2019-03-29T11:11:21.707Z,21.99
2019-03-29T11:12:21.736Z,22.07
2019-03-29T11:13:21.601Z,22.09
2019-03-29T11:14:21.682Z,22.06
2019-03-29T11:15:21.643Z,22.02
2019-03-29T11:16:21.567Z,21.94
2019-03-29T11:17:21.552Z,21.88
2019-03-29T11:18:21.541Z,21.95
2019-03-29T11:19:21.541Z,21.85
2019-03-29T11:20:21.527Z,21.81
2019-03-29T11:21:21.670Z,21.82
2019-03-29T11:22:21.489Z,21.78
2019-03-29T11:23:21.545Z,21.71
2019-03-29T11:24:21.533Z,21.67
2019-03-29T11:25:21.463Z,21.64
2019-03-29T11:26:21.467Z,21.64
2019-03-29T11:27:22.584Z,21.57
2019-03-29T11:28:21.444Z,21.59
2019-03-29T11:29:21.445Z,21.59
2019-03-29T11:30:21.437Z,21.45
2019-03-29T11:31:21.401Z,21.45
2019-03-29T11:32:21.405Z,21.44
2019-03-29T11:33:21.436Z,21.45
2019-03-29T11:34:21.362Z,21.45
2019-03-29T11:35:21.361Z,21.41
2019-03-29T11:36:21.349Z,21.45
2019-03-29T11:37:21.342Z,21.44
2019-03-29T11:38:21.321Z,21.44
2019-03-29T11:39:21.358Z,21.44
2019-03-29T11:40:21.309Z,21.42
2019-03-29T11:41:21.302Z,21.44
2019-03-29T11:42:21.282Z,21.51
2019-03-29T11:43:26.925Z,21.45
2019-03-29T11:44:22.283Z,21.53
2019-03-29T11:45:21.395Z,21.50
2019-03-29T11:46:21.333Z,21.48
2019-03-29T11:47:21.333Z,21.59
2019-03-29T11:48:21.348Z,21.51
2019-03-29T11:49:21.306Z,21.56
2019-03-29T11:50:21.303Z,21.57
2019-03-29T11:51:21.340Z,21.57
2019-03-29T11:52:21.325Z,21.60
2019-03-29T11:53:21.247Z,21.54
2019-03-29T11:54:21.228Z,21.59
2019-03-29T11:55:21.223Z,21.59
2019-03-29T11:56:21.212Z,21.63
2019-03-29T11:57:21.256Z,21.59
2019-03-29T11:58:21.186Z,21.54
2019-03-29T11:59:21.223Z,21.60
2019-03-29T12:00:21.209Z,21.66
2019-03-29T12:01:21.176Z,21.56
2019-03-29T12:02:31.156Z,21.59
2019-03-29T12:03:22.180Z,21.63
2019-03-29T12:04:21.136Z,21.71
2019-03-29T12:05:21.130Z,21.64
2019-03-29T12:06:21.119Z,21.64
2019-03-29T12:07:21.019Z,21.64
2019-03-29T12:08:20.977Z,21.67
2019-03-29T12:09:21.037Z,21.67
2019-03-29T12:10:20.974Z,21.67
2019-03-29T12:11:20.954Z,21.63
2019-03-29T12:12:20.952Z,21.60
2019-03-29T12:13:20.967Z,21.53
2019-03-29T12:14:20.961Z,21.54
2019-03-29T12:15:21.003Z,21.57
2019-03-29T12:16:20.911Z,21.60
2019-03-29T12:17:21.441Z,21.48
2019-03-29T12:18:20.873Z,21.53
2019-03-29T12:19:20.958Z,21.50
2019-03-29T12:20:20.933Z,21.45
2019-03-29T12:21:20.853Z,21.48
2019-03-29T12:22:20.848Z,21.42
2019-03-29T12:23:20.835Z,21.36
2019-03-29T12:24:20.859Z,21.36
2019-03-29T12:25:20.821Z,21.36
2019-03-29T12:26:20.844Z,21.35
2019-03-29T12:27:21.423Z,21.32
2019-03-29T12:28:20.771Z,21.35
2019-03-29T12:29:20.771Z,21.29
2019-03-29T12:30:31.384Z,21.32
2019-03-29T12:31:21.789Z,21.29
2019-03-29T12:32:20.746Z,21.24
2019-03-29T12:33:20.797Z,21.35
2019-03-29T12:34:20.914Z,21.29
2019-03-29T12:35:20.799Z,21.29
2019-03-29T12:36:20.789Z,21.30
2019-03-29T12:37:20.811Z,21.34
2019-03-29T12:38:20.745Z,21.36
2019-03-29T12:39:20.749Z,21.27
2019-03-29T12:40:20.713Z,21.30
2019-03-29T12:41:20.710Z,21.35
2019-03-29T12:42:20.713Z,21.35
2019-03-29T12:43:21.083Z,21.39
2019-03-29T12:44:20.691Z,21.38
2019-03-29T12:45:20.662Z,21.39
2019-03-29T12:46:20.667Z,21.44
2019-03-29T12:47:20.666Z,21.42
2019-03-29T12:48:20.642Z,21.41
2019-03-29T12:49:20.691Z,21.48
2019-03-29T12:50:20.631Z,21.45
2019-03-29T12:51:20.624Z,21.42
2019-03-29T12:52:20.672Z,21.48